Time;durP1;ratioP1;P1;durP2;ratioP2;P2;SDS_P1;SDS_P2;PMS_P1;PMS_P2;Temp;Humidity;BMP_temperature;BMP_pressure;BME280_temperature;BME280_humidity;BME280_pressure;Samples;Min_cycle;Max_cycle;Signal;HPM_P1;HPM_P2
2023/05/13 00:00:02;;;;;;;;;;;;;;;18.13;41.08;101513.36;103670;1286;73754;-83
2023/05/13 00:02:38;;;;;;;;;;;;;;;18.14;41.10;101510.31;103566;1289;74428;-82
2023/05/13 00:05:18;;;;;;;;;;;;;;;18.13;41.22;101508.20;103677;1289;61305;-82
2023/05/13 00:07:49;;;;;;;;;;;;;;;18.14;41.15;101508.52;103653;1286;61388;-82
2023/05/13 00:10:20;;;;;;;;;;;;;;;18.13;41.15;101506.07;103657;1288;72498;-81
2023/05/13 00:12:54;;;;;;;;;;;;;;;18.13;41.01;101512.64;103569;1284;75145;-82
2023/05/13 00:15:20;;;;;;;;;;;;;;;18.13;41.12;101513.91;103654;1285;61368;-82
2023/05/13 00:17:56;;;;;;;;;;;;;;;18.13;41.14;101520.52;103360;1293;61391;-82
2023/05/13 00:20:30;;;;;;;;;;;;;;;18.13;41.08;101524.44;103113;1293;72569;-83
2023/05/13 00:23:12;;;;;;;;;;;;;;;18.13;41.14;101523.90;103331;1289;75648;-82
2023/05/13 00:25:40;;;;;;;;;;;;;;;18.13;41.20;101517.67;103363;1289;61450;-82
2023/05/13 00:28:13;;;;;;;;;;;;;;;18.13;41.19;101516.96;103191;1288;61483;-81
2023/05/13 00:30:45;;;;;;;;;;;;;;;18.13;41.13;101520.53;103390;1290;73827;-82
2023/05/13 00:33:11;;;;;;;;;;;;;;;18.13;41.13;101525.15;103371;1294;73974;-82
2023/05/13 00:35:49;;;;;;;;;;;;;;;18.13;41.18;101523.19;103149;1290;61379;-82
2023/05/13 00:38:23;;;;;;;;;;;;;;;18.12;41.30;101528.55;103103;1288;61933;-82
2023/05/13 00:40:53;;;;;;;;;;;;;;;18.12;41.14;101528.55;103415;1292;73590;-83
2023/05/13 00:43:21;;;;;;;;;;;;;;;18.12;41.11;101532.48;103429;1289;74548;-81
2023/05/13 00:45:52;;;;;;;;;;;;;;;18.12;41.10;101532.47;103443;1289;61381;-83
2023/05/13 00:48:20;;;;;;;;;;;;;;;18.12;41.16;101525.88;103077;1292;61420;-83
2023/05/13 00:50:48;;;;;;;;;;;;;;;18.12;41.14;101526.45;103122;1291;72406;-82
2023/05/13 00:53:19;;;;;;;;;;;;;;;18.12;41.20;101528.56;103148;1296;75458;-82
2023/05/13 00:56:01;;;;;;;;;;;;;;;18.12;41.17;101522.54;103286;1294;61395;-82
2023/05/13 00:58:30;;;;;;;;;;;;;;;18.12;41.23;101523.22;103357;1288;61302;-82
2023/05/13 01:01:16;;;;;;;;;;;;;;;18.12;41.18;101521.98;103452;1291;61526;-81
2023/05/13 01:04:20;;;;;;;;;;;;;;;18.12;41.11;101522.17;103432;1294;75530;-82
2023/05/13 01:06:57;;;;;;;;;;;;;;;18.12;41.26;101522.88;102950;1297;61481;-81
2023/05/13 01:09:43;;;;;;;;;;;;;;;18.11;41.15;101521.66;103137;1296;61481;-82
2023/05/13 01:12:16;;;;;;;;;;;;;;;18.11;41.16;101526.46;103477;1293;72514;-83
2023/05/13 01:14:48;;;;;;;;;;;;;;;18.12;41.11;101533.94;103440;1289;74528;-82
2023/05/13 01:17:23;;;;;;;;;;;;;;;18.12;41.30;101537.13;103516;1294;61304;-82
2023/05/13 01:19:55;;;;;;;;;;;;;;;18.12;41.29;101539.23;103532;1291;61407;-83
2023/05/13 01:22:28;;;;;;;;;;;;;;;18.12;41.36;101542.10;103591;1291;72511;-83
2023/05/13 01:25:03;;;;;;;;;;;;;;;18.12;41.09;101540.33;103543;1291;75454;-83
2023/05/13 01:27:37;;;;;;;;;;;;;;;18.12;41.21;101538.88;103628;1286;61401;-85
2023/05/13 01:30:06;;;;;;;;;;;;;;;18.12;41.25;101538.20;103542;1291;61359;-83
2023/05/13 01:32:39;;;;;;;;;;;;;;;18.12;41.08;101541.93;103742;1286;72345;-81
2023/05/13 01:35:10;;;;;;;;;;;;;;;18.12;41.15;101539.45;103419;1292;74519;-82
2023/05/13 01:37:45;;;;;;;;;;;;;;;18.12;41.27;101539.43;103435;1292;61403;-82
2023/05/13 01:40:14;;;;;;;;;;;;;;;18.12;41.25;101537.67;103454;1294;62351;-82
2023/05/13 01:42:43;;;;;;;;;;;;;;;18.11;41.28;101542.67;103436;1288;72552;-82
2023/05/13 01:45:29;;;;;;;;;;;;;;;18.11;41.29;101544.46;103628;1286;74403;-83
2023/05/13 01:48:02;;;;;;;;;;;;;;;18.11;41.35;101543.05;103572;1286;61362;-82
2023/05/13 01:50:30;;;;;;;;;;;;;;;18.11;41.18;101544.28;103608;1291;61939;-83
2023/05/13 01:53:02;;;;;;;;;;;;;;;18.11;41.26;101546.79;103550;1292;73447;-82
2023/05/13 01:55:42;;;;;;;;;;;;;;;18.11;41.32;101547.67;103434;1285;75344;-81
2023/05/13 01:58:11;;;;;;;;;;;;;;;18.11;41.38;101551.43;103621;1290;61772;-82
2023/05/13 02:00:39;;;;;;;;;;;;;;;18.11;41.27;101553.74;103599;1286;61311;-82
2023/05/13 02:03:14;;;;;;;;;;;;;;;18.10;41.30;101548.45;103542;1286;72637;-82
2023/05/13 02:05:48;;;;;;;;;;;;;;;18.10;41.26;101550.74;103692;1292;74203;-82
2023/05/13 02:08:24;;;;;;;;;;;;;;;18.11;41.28;101553.77;103530;1286;62463;-83
2023/05/13 02:11:11;;;;;;;;;;;;;;;18.10;41.37;101559.47;103580;1292;61394;-82
2023/05/13 02:13:47;;;;;;;;;;;;;;;18.09;41.31;101559.33;103574;1287;72916;-82
2023/05/13 02:16:21;;;;;;;;;;;;;;;18.11;41.22;101564.09;103521;1286;74800;-82
2023/05/13 02:18:51;;;;;;;;;;;;;;;18.09;41.37;101565.90;103591;1289;61327;-83
2023/05/13 02:21:40;;;;;;;;;;;;;;;18.09;41.40;101560.59;103551;1286;61234;-82
2023/05/13 02:24:17;;;;;;;;;;;;;;;;;;;;;
2023/05/13 02:26:54;;;;;;;;;;;;;;;18.09;41.25;101563.97;103543;1286;74410;-82
2023/05/13 02:29:31;;;;;;;;;;;;;;;18.09;41.33;101565.73;103622;1289;62436;-82
2023/05/13 02:32:06;;;;;;;;;;;;;;;18.09;41.44;101566.29;103530;1285;61740;-82
2023/05/13 02:34:32;;;;;;;;;;;;;;;18.09;41.44;101564.67;104391;1285;72294;-82
2023/05/13 02:37:02;;;;;;;;;;;;;;;18.09;41.32;101562.54;104309;1290;75425;-81
2023/05/13 02:39:30;;;;;;;;;;;;;;;18.09;41.35;101561.27;104195;1285;61381;-81
2023/05/13 02:42:04;;;;;;;;;;;;;;;18.10;41.48;101559.48;103678;1285;61373;-82
2023/05/13 02:44:39;;;;;;;;;;;;;;;18.10;41.52;101558.40;103534;1291;72590;-83
2023/05/13 02:47:07;;;;;;;;;;;;;;;18.10;41.43;101561.98;103406;1292;74304;-82
2023/05/13 02:49:42;;;;;;;;;;;;;;;18.09;41.53;101559.14;103446;1292;61830;-82
2023/05/13 02:52:13;;;;;;;;;;;;;;;18.10;41.43;101562.34;103668;1286;61330;-83
2023/05/13 02:54:51;;;;;;;;;;;;;;;18.10;41.44;101560.56;103514;1290;72528;-82
2023/05/13 02:57:24;;;;;;;;;;;;;;;18.10;41.50;101559.48;103425;1290;74536;-82
2023/05/13 02:59:55;;;;;;;;;;;;;;;18.09;41.29;101560.38;103467;1285;61432;-83
2023/05/13 03:02:23;;;;;;;;;;;;;;;18.10;41.46;101566.80;103584;1289;61708;-82
2023/05/13 03:05:13;;;;;;;;;;;;;;;18.09;41.45;101569.66;103671;1289;73272;-83
2023/05/13 03:07:40;;;;;;;;;;;;;;;18.09;41.39;101576.96;103576;1285;74549;-83
2023/05/13 03:10:15;;;;;;;;;;;;;;;18.09;41.39;101574.48;103623;1291;61600;-82
2023/05/13 03:13:01;;;;;;;;;;;;;;;18.09;41.36;101578.20;103642;1289;61418;-82
2023/05/13 03:15:26;;;;;;;;;;;;;;;18.09;41.43;101576.63;103543;1287;71579;-81
2023/05/13 03:18:01;;;;;;;;;;;;;;;18.09;41.34;101577.35;103585;1286;61488;-82
2023/05/13 03:20:27;;;;;;;;;;;;;;;18.09;41.58;101578.59;103806;1291;61319;-81
2023/05/13 03:22:55;;;;;;;;;;;;;;;18.09;41.50;101581.06;103571;1290;61359;-82
2023/05/13 03:25:38;;;;;;;;;;;;;;;;;;;;;
2023/05/13 03:28:07;;;;;;;;;;;;;;;18.09;41.47;101582.66;103583;1292;74525;-81
2023/05/13 03:30:32;;;;;;;;;;;;;;;18.10;41.44;101584.98;103598;1286;62233;-83
2023/05/13 03:33:18;;;;;;;;;;;;;;;;;;;;;
2023/05/13 03:35:48;;;;;;;;;;;;;;;18.09;41.49;101585.34;103588;1291;72485;-83
2023/05/13 03:38:28;;;;;;;;;;;;;;;18.10;41.44;101584.63;103414;1288;74177;-83
2023/05/13 03:40:54;;;;;;;;;;;;;;;18.10;41.52;101583.72;103833;1301;61254;-82
2023/05/13 03:43:19;;;;;;;;;;;;;;;18.10;41.52;101584.77;103793;1288;61470;-82
2023/05/13 03:45:47;;;;;;;;;;;;;;;18.10;41.55;101584.05;103716;1288;61285;-81
2023/05/13 03:48:15;;;;;;;;;;;;;;;18.11;41.57;101585.98;103591;1290;62556;-81
2023/05/13 03:50:41;;;;;;;;;;;;;;;18.11;41.49;101587.06;103589;1290;61386;-81
2023/05/13 03:53:10;;;;;;;;;;;;;;;18.11;41.67;101588.46;103630;1288;61356;-82
2023/05/13 03:55:57;;;;;;;;;;;;;;;18.12;41.56;101594.50;103479;1291;72351;-82
2023/05/13 03:58:34;;;;;;;;;;;;;;;;;;;;;
2023/05/13 04:01:13;;;;;;;;;;;;;;;18.12;41.46;101596.25;103350;1288;61449;-82
2023/05/13 04:03:57;;;;;;;;;;;;;;;;;;;;;
2023/05/13 04:06:25;;;;;;;;;;;;;;;18.13;41.56;101607.08;103312;1293;73416;-82
2023/05/13 04:09:03;;;;;;;;;;;;;;;18.13;41.67;101610.68;103337;1292;74454;-83
2023/05/13 04:11:47;;;;;;;;;;;;;;;;;;;;;
2023/05/13 04:14:41;;;;;;;;;;;;;;;18.13;41.65;101613.16;103435;1289;61320;-83
2023/05/13 04:17:17;;;;;;;;;;;;;;;18.13;41.59;101611.55;103103;1295;72643;-82
2023/05/13 04:19:45;;;;;;;;;;;;;;;18.13;41.58;101609.75;103434;1293;74015;-82
2023/05/13 04:22:22;;;;;;;;;;;;;;;18.13;41.55;101612.25;103366;1288;61745;-82
2023/05/13 04:24:55;;;;;;;;;;;;;;;18.13;41.59;101610.82;103262;1288;61264;-81
2023/05/13 04:27:22;;;;;;;;;;;;;;;18.13;41.66;101612.61;103441;1290;73445;-83
2023/05/13 04:30:00;;;;;;;;;;;;;;;18.13;41.54;101616.01;103334;1293;74519;-82
2023/05/13 04:32:31;;;;;;;;;;;;;;;18.13;41.65;101619.92;103355;1288;61300;-82
2023/05/13 04:34:57;;;;;;;;;;;;;;;18.12;41.53;101619.23;103586;1287;61296;-82
2023/05/13 04:37:30;;;;;;;;;;;;;;;18.13;41.56;101618.51;103435;1286;61471;-81
2023/05/13 04:39:55;;;;;;;;;;;;;;;18.13;41.55;101619.73;103335;1288;74644;-82
2023/05/13 04:42:24;;;;;;;;;;;;;;;18.12;41.67;101617.11;103476;1291;61427;-83
2023/05/13 04:44:54;;;;;;;;;;;;;;;18.13;41.68;101625.81;103511;1292;61432;-83
2023/05/13 04:47:23;;;;;;;;;;;;;;;18.13;41.55;101629.20;103321;1292;72590;-84
2023/05/13 04:49:57;;;;;;;;;;;;;;;18.13;41.59;101632.22;103480;1286;74527;-82
2023/05/13 04:52:23;;;;;;;;;;;;;;;18.13;41.61;101634.02;103466;1286;61778;-82
2023/05/13 04:55:09;;;;;;;;;;;;;;;18.13;41.45;101631.33;103498;1286;61327;-83
2023/05/13 04:57:43;;;;;;;;;;;;;;;18.13;41.61;101640.40;103412;1288;72565;-83
2023/05/13 05:00:12;;;;;;;;;;;;;;;18.13;41.62;101637.36;103322;1288;75726;-82
2023/05/13 05:02:47;;;;;;;;;;;;;;;18.14;41.70;101642.15;103487;1286;61337;-82
2023/05/13 05:05:35;;;;;;;;;;;;;;;18.14;41.66;101639.45;103495;1286;61473;-82
2023/05/13 05:08:13;;;;;;;;;;;;;;;18.15;41.65;101642.98;103062;1295;73455;-83
2023/05/13 05:10:49;;;;;;;;;;;;;;;18.16;41.63;101650.77;102953;1292;75547;-82
2023/05/13 05:13:15;;;;;;;;;;;;;;;18.17;41.68;101651.27;103097;1297;61430;-82
2023/05/13 05:15:55;;;;;;;;;;;;;;;18.19;41.71;101657.06;102994;1291;61407;-82
2023/05/13 05:18:42;;;;;;;;;;;;;;;18.19;41.79;101657.21;103093;1292;73040;-82
2023/05/13 05:21:20;;;;;;;;;;;;;;;18.20;41.85;101659.14;103067;1291;75235;-82
2023/05/13 05:24:04;;;;;;;;;;;;;;;18.20;41.84;101665.02;102942;1292;61482;-82
2023/05/13 05:26:38;;;;;;;;;;;;;;;18.21;41.85;101669.62;103084;1292;61495;-82
2023/05/13 05:29:04;;;;;;;;;;;;;;;18.21;41.83;101671.75;102957;1291;71885;-82
2023/05/13 05:31:51;;;;;;;;;;;;;;;18.21;41.74;101674.23;103023;1291;75578;-82
2023/05/13 05:34:22;;;;;;;;;;;;;;;18.22;41.77;101680.46;103123;1291;61331;-83
2023/05/13 05:36:56;;;;;;;;;;;;;;;18.22;41.80;101684.54;103016;1291;62328;-83
2023/05/13 05:39:29;;;;;;;;;;;;;;;18.22;41.89;101683.27;102976;1291;72423;-82
2023/05/13 05:41:58;;;;;;;;;;;;;;;18.23;41.72;101679.85;103034;1291;75392;-82
2023/05/13 05:44:36;;;;;;;;;;;;;;;18.23;41.85;101681.79;103039;1291;62213;-82
2023/05/13 05:47:14;;;;;;;;;;;;;;;18.26;41.94;101683.63;103013;1291;61435;-82
2023/05/13 05:49:50;;;;;;;;;;;;;;;18.27;41.94;101683.40;103054;1292;72444;-82
2023/05/13 05:52:18;;;;;;;;;;;;;;;18.28;41.95;101684.98;102973;1296;74353;-82
2023/05/13 05:54:56;;;;;;;;;;;;;;;18.29;41.88;101684.26;103052;1296;62269;-81
2023/05/13 05:57:21;;;;;;;;;;;;;;;18.30;41.88;101684.91;103015;1295;61333;-83
2023/05/13 05:59:47;;;;;;;;;;;;;;;18.30;41.73;101686.32;103103;1291;61500;-82
2023/05/13 06:02:41;;;;;;;;;;;;;;;18.30;42.09;101684.19;103065;1291;75292;-82
2023/05/13 06:05:07;;;;;;;;;;;;;;;18.30;42.01;101687.55;103004;1294;61529;-83
2023/05/13 06:07:36;;;;;;;;;;;;;;;18.30;42.11;101688.80;102817;1297;61974;-82
2023/05/13 06:10:16;;;;;;;;;;;;;;;18.31;41.97;101690.73;102823;1297;72150;-83
2023/05/13 06:12:44;;;;;;;;;;;;;;;18.31;42.17;101691.63;102656;1298;74472;-82
2023/05/13 06:15:10;;;;;;;;;;;;;;;18.32;41.97;101692.09;102698;1296;61406;-83
2023/05/13 06:17:49;;;;;;;;;;;;;;;;;;;;;
2023/05/13 06:20:22;;;;;;;;;;;;;;;18.34;42.10;101687.00;102600;1299;72411;-83
2023/05/13 06:22:50;;;;;;;;;;;;;;;18.35;42.12;101684.84;102682;1299;74306;-83
2023/05/13 06:25:25;;;;;;;;;;;;;;;18.35;42.06;101688.59;102822;1297;61616;-82
2023/05/13 06:27:56;;;;;;;;;;;;;;;18.35;42.13;101691.77;102711;1299;61478;-82
2023/05/13 06:30:22;;;;;;;;;;;;;;;18.35;42.10;101689.63;102686;1297;73357;-84
2023/05/13 06:33:02;;;;;;;;;;;;;;;18.36;42.20;101693.20;102737;1297;74368;-81
2023/05/13 06:35:37;;;;;;;;;;;;;;;18.35;42.18;101689.84;102683;1297;61405;-82
2023/05/13 06:38:02;;;;;;;;;;;;;;;18.35;42.10;101691.27;102823;1297;61322;-82
2023/05/13 06:40:48;;;;;;;;;;;;;;;18.35;42.16;101691.97;102673;1296;73549;-82
2023/05/13 06:43:25;;;;;;;;;;;;;;;18.35;42.19;101691.45;102798;1297;73718;-82
2023/05/13 06:46:15;;;;;;;;;;;;;;;18.35;42.34;101699.46;102918;1291;61394;-82
2023/05/13 06:48:52;;;;;;;;;;;;;;;18.35;42.22;101700.70;103022;1291;61475;-82
2023/05/13 06:51:25;;;;;;;;;;;;;;;18.35;42.18;101703.91;103010;1291;73631;-82
2023/05/13 06:54:02;;;;;;;;;;;;;;;18.34;42.11;101701.09;103011;1295;74511;-83
2023/05/13 06:56:33;;;;;;;;;;;;;;;18.34;42.20;101700.20;103107;1291;61354;-82
2023/05/13 06:59:20;;;;;;;;;;;;;;;18.34;42.19;101700.73;103049;1291;61260;-82
2023/05/13 07:01:46;;;;;;;;;;;;;;;18.34;42.08;101703.94;102968;1295;72345;-82
2023/05/13 07:04:15;;;;;;;;;;;;;;;18.34;42.29;101704.30;102994;1291;75573;-82
2023/05/13 07:06:50;;;;;;;;;;;;;;;18.34;42.32;101702.18;100413;1293;3567124;-82
2023/05/13 07:09:28;;;;;;;;;;;;;;;18.33;42.20;101700.60;103023;1294;61325;-82
2023/05/13 07:11:57;;;;;;;;;;;;;;;18.34;42.28;101703.42;103057;1292;73331;-82
2023/05/13 07:14:28;;;;;;;;;;;;;;;18.34;42.15;101701.44;102981;1291;74228;-83
2023/05/13 07:17:04;;;;;;;;;;;;;;;18.34;42.21;101696.63;103005;1296;62192;-82
2023/05/13 07:19:41;;;;;;;;;;;;;;;18.35;42.21;101696.79;102946;1291;61391;-82
2023/05/13 07:22:06;;;;;;;;;;;;;;;18.35;42.27;101696.94;103138;1292;72301;-82
2023/05/13 07:24:35;;;;;;;;;;;;;;;18.36;42.17;101698.36;102967;1296;74423;-82
2023/05/13 07:27:07;;;;;;;;;;;;;;;18.36;42.29;101700.33;103010;1291;61456;-82
2023/05/13 07:29:51;;;;;;;;;;;;;;;18.36;42.40;101700.83;103000;1291;61711;-83
2023/05/13 07:32:17;;;;;;;;;;;;;;;18.36;42.29;101696.73;103083;1293;72439;-82
2023/05/13 07:34:46;;;;;;;;;;;;;;;18.36;42.34;101697.09;103071;1295;74834;-82
2023/05/13 07:37:20;;;;;;;;;;;;;;;18.36;42.16;101691.54;102940;1293;61354;-82
2023/05/13 07:39:56;;;;;;;;;;;;;;;18.37;42.31;101690.06;102942;1296;61760;-82
2023/05/13 07:42:31;;;;;;;;;;;;;;;18.38;42.21;101688.45;102939;1294;72416;-82
2023/05/13 07:45:01;;;;;;;;;;;;;;;18.38;42.22;101691.98;103151;1293;75593;-82
2023/05/13 07:47:32;;;;;;;;;;;;;;;18.38;42.21;101692.54;103090;1296;61293;-82
2023/05/13 07:50:01;;;;;;;;;;;;;;;18.38;42.23;101691.64;103338;1294;61465;-82
2023/05/13 07:52:29;;;;;;;;;;;;;;;18.39;42.41;101693.57;103228;1294;72474;-82
2023/05/13 07:54:58;;;;;;;;;;;;;;;18.39;42.29;101685.19;103033;1293;74523;-83
2023/05/13 07:57:32;;;;;;;;;;;;;;;18.39;42.24;101685.36;103033;1294;61440;-82
2023/05/13 07:59:57;;;;;;;;;;;;;;;18.39;42.21;101682.31;103002;1292;61568;-82
2023/05/13 08:02:23;;;;;;;;;;;;;;;18.40;42.26;101679.80;102970;1294;61422;-82
2023/05/13 08:04:57;;;;;;;;;;;;;;;18.40;42.21;101680.33;103502;1288;61421;-81
2023/05/13 08:07:36;;;;;;;;;;;;;;;18.41;42.22;101685.47;103823;1288;61792;-81
2023/05/13 08:10:04;;;;;;;;;;;;;;;18.41;42.18;101680.66;103721;1288;61291;-81
2023/05/13 08:12:30;;;;;;;;;;;;;;;18.41;42.15;101682.25;103446;1290;61392;-82
2023/05/13 08:15:05;;;;;;;;;;;;;;;18.41;42.30;101686.68;103522;1288;74737;-82
2023/05/13 08:17:33;;;;;;;;;;;;;;;18.42;42.25;101682.21;103211;1293;61302;-82
2023/05/13 08:20:02;;;;;;;;;;;;;;;18.41;42.11;101688.10;103353;1292;62332;-83
2023/05/13 08:22:39;;;;;;;;;;;;;;;18.42;42.22;101691.10;103316;1289;72828;-82
2023/05/13 08:25:05;;;;;;;;;;;;;;;18.42;42.18;101690.02;103345;1288;75460;-82
2023/05/13 08:27:48;;;;;;;;;;;;;;;18.42;42.24;101693.05;103363;1288;61388;-82
2023/05/13 08:30:17;;;;;;;;;;;;;;;18.43;42.18;101695.88;103353;1288;61407;-81
2023/05/13 08:32:55;;;;;;;;;;;;;;;18.43;42.26;101700.33;103367;1289;73343;-82
2023/05/13 08:35:29;;;;;;;;;;;;;;;18.43;42.30;101697.30;103267;1288;74802;-82
2023/05/13 08:38:05;;;;;;;;;;;;;;;18.43;42.08;101697.11;103409;1288;61453;-83
2023/05/13 08:40:39;;;;;;;;;;;;;;;18.43;42.15;101692.48;103312;1288;61306;-82
2023/05/13 08:43:24;;;;;;;;;;;;;;;18.43;42.10;101699.96;103381;1294;73645;-82
2023/05/13 08:45:53;;;;;;;;;;;;;;;18.43;42.13;101700.86;103426;1292;74509;-82
2023/05/13 08:48:33;;;;;;;;;;;;;;;18.42;42.15;101700.01;103255;1294;62467;-82
2023/05/13 08:51:02;;;;;;;;;;;;;;;18.42;42.18;101702.50;103299;1288;61367;-83
2023/05/13 08:53:31;;;;;;;;;;;;;;;18.42;42.17;101705.71;103408;1293;72587;-82
2023/05/13 08:55:57;;;;;;;;;;;;;;;18.42;42.09;101709.12;103477;1290;74528;-82
2023/05/13 08:58:52;;;;;;;;;;;;;;;18.41;42.16;101703.80;102662;1296;61198;-83
2023/05/13 09:01:25;;;;;;;;;;;;;;;18.41;42.11;101706.46;102691;1296;61568;-83
2023/05/13 09:04:02;;;;;;;;;;;;;;;18.41;42.14;101706.66;102641;1296;73584;-83
2023/05/13 09:06:35;;;;;;;;;;;;;;;18.40;42.09;101709.88;102665;1296;74751;-82
2023/05/13 09:09:07;;;;;;;;;;;;;;;18.40;42.14;101709.35;102696;1295;61436;-82
2023/05/13 09:11:39;;;;;;;;;;;;;;;18.40;42.09;101710.78;102682;1296;61454;-81
2023/05/13 09:14:10;;;;;;;;;;;;;;;18.39;42.05;101713.34;102729;1298;72500;-82
2023/05/13 09:16:39;;;;;;;;;;;;;;;18.39;42.16;101713.17;102643;1296;75873;-82
2023/05/13 09:19:09;;;;;;;;;;;;;;;18.39;42.05;101710.66;102611;1295;61403;-83
2023/05/13 09:21:38;;;;;;;;;;;;;;;18.38;41.99;101710.87;102699;1296;61341;-83
2023/05/13 09:24:17;;;;;;;;;;;;;;;18.38;42.04;101706.27;102750;1295;61965;-83
2023/05/13 09:26:46;;;;;;;;;;;;;;;18.38;41.96;101704.30;102744;1299;74756;-82
2023/05/13 09:29:27;;;;;;;;;;;;;;;18.38;41.85;101697.73;102685;1296;61422;-82
2023/05/13 09:32:08;;;;;;;;;;;;;;;18.37;41.99;101693.47;102683;1299;61172;-82
2023/05/13 09:34:46;;;;;;;;;;;;;;;;;;;;;
2023/05/13 09:37:23;;;;;;;;;;;;;;;18.37;41.94;101696.87;103412;1289;74489;-83
2023/05/13 09:39:49;;;;;;;;;;;;;;;18.37;42.00;101699.19;103452;1285;61382;-82
2023/05/13 09:42:15;;;;;;;;;;;;;;;18.37;41.89;101697.94;103660;1285;62565;-81
2023/05/13 09:44:48;;;;;;;;;;;;;;;18.37;41.94;101693.67;103570;1287;72406;-82
2023/05/13 09:47:23;;;;;;;;;;;;;;;18.37;41.92;101693.67;103591;1291;75325;-81
2023/05/13 09:49:56;;;;;;;;;;;;;;;18.36;42.01;101694.39;103567;1285;61458;-82
2023/05/13 09:52:27;;;;;;;;;;;;;;;18.36;41.80;101694.40;103571;1285;62436;-83
2023/05/13 09:54:57;;;;;;;;;;;;;;;18.36;41.88;101691.92;103644;1285;73562;-82
2023/05/13 09:57:25;;;;;;;;;;;;;;;18.36;41.86;101691.89;103642;1285;74634;-83
2023/05/13 09:59:51;;;;;;;;;;;;;;;18.36;41.85;101690.65;103660;1284;61362;-84
2023/05/13 10:02:27;;;;;;;;;;;;;;;18.37;41.88;101696.35;103652;1285;62510;-82
2023/05/13 10:04:54;;;;;;;;;;;;;;;18.37;41.82;101694.55;103672;1284;73251;-82
2023/05/13 10:07:36;;;;;;;;;;;;;;;;;;;;;
2023/05/13 10:10:18;;;;;;;;;;;;;;;18.37;41.82;101697.94;103691;1285;61353;-83
2023/05/13 10:12:53;;;;;;;;;;;;;;;18.37;41.68;101700.97;103708;1288;61478;-81
2023/05/13 10:15:21;;;;;;;;;;;;;;;18.37;41.68;101697.04;103337;1284;71850;-82
2023/05/13 10:17:54;;;;;;;;;;;;;;;18.38;41.66;101693.29;103701;1285;74559;-82
2023/05/13 10:20:26;;;;;;;;;;;;;;;18.38;41.74;101694.15;103648;1285;61396;-82
2023/05/13 10:23:01;;;;;;;;;;;;;;;18.38;41.64;101691.98;103737;1285;61871;-84
2023/05/13 10:25:33;;;;;;;;;;;;;;;18.39;41.65;101691.97;103413;1285;72498;-82
2023/05/13 10:28:07;;;;;;;;;;;;;;;18.39;41.56;101691.61;103517;1291;74648;-82
2023/05/13 10:30:41;;;;;;;;;;;;;;;18.39;41.51;101683.75;103621;1284;61277;-83
2023/05/13 10:33:28;;;;;;;;;;;;;;;18.39;41.51;101685.73;103674;1285;61430;-82
2023/05/13 10:36:03;;;;;;;;;;;;;;;18.39;41.50;101687.50;103583;1284;73544;-82
2023/05/13 10:39:00;;;;;;;;;;;;;;;18.39;41.70;101686.08;103589;1286;75596;-83
2023/05/13 10:41:47;;;;;;;;;;;;;;;18.39;41.49;101688.73;103655;1286;61274;-81
2023/05/13 10:44:16;;;;;;;;;;;;;;;18.40;41.68;101688.72;103741;1285;61862;-82
2023/05/13 10:46:54;;;;;;;;;;;;;;;18.40;41.49;101684.95;103723;1286;72922;-83
2023/05/13 10:49:29;;;;;;;;;;;;;;;18.41;41.60;101683.85;103601;1284;74474;-81
2023/05/13 10:52:06;;;;;;;;;;;;;;;18.41;41.36;101682.59;103727;1285;61407;-82
2023/05/13 10:54:39;;;;;;;;;;;;;;;18.41;41.34;101684.55;103554;1286;61397;-81
2023/05/13 10:57:05;;;;;;;;;;;;;;;18.42;41.45;101690.56;103708;1287;73476;-82
2023/05/13 10:59:35;;;;;;;;;;;;;;;18.42;41.34;101687.70;103663;1288;61385;-83
2023/05/13 11:02:08;;;;;;;;;;;;;;;18.43;41.34;101685.55;103626;1284;61344;-82
2023/05/13 11:04:40;;;;;;;;;;;;;;;18.43;41.34;101683.03;103573;1285;61745;-82
2023/05/13 11:07:15;;;;;;;;;;;;;;;18.43;41.27;101685.69;103624;1291;73425;-82
2023/05/13 11:09:47;;;;;;;;;;;;;;;18.44;41.24;101679.97;103587;1290;74394;-81
2023/05/13 11:12:39;;;;;;;;;;;;;;;18.44;41.29;101676.75;103656;1285;61430;-82
2023/05/13 11:15:19;;;;;;;;;;;;;;;18.45;41.09;101679.94;103069;1291;61417;-83
2023/05/13 11:17:45;;;;;;;;;;;;;;;18.45;41.24;101684.04;103146;1290;72472;-82
2023/05/13 11:20:20;;;;;;;;;;;;;;;18.46;41.10;101682.91;103090;1292;61671;-82
2023/05/13 11:22:49;;;;;;;;;;;;;;;18.46;41.13;101682.91;103059;1291;61482;-83
2023/05/13 11:25:14;;;;;;;;;;;;;;;18.47;40.99;101683.23;103031;1291;62280;-81
2023/05/13 11:27:42;;;;;;;;;;;;;;;18.47;41.00;101681.98;103056;1291;61612;-83
2023/05/13 11:30:40;;;;;;;;;;;;;;;18.47;41.02;101675.91;103146;1295;74351;-83
2023/05/13 11:33:14;;;;;;;;;;;;;;;18.48;40.94;101671.42;102813;1300;61962;-81
2023/05/13 11:35:43;;;;;;;;;;;;;;;18.49;40.95;101671.55;102675;1298;61363;-82
2023/05/13 11:38:32;;;;;;;;;;;;;;;18.49;40.96;101672.09;102818;1297;73326;-82
2023/05/13 11:40:58;;;;;;;;;;;;;;;18.49;41.00;101666.17;102853;1297;74316;-83
2023/05/13 11:43:32;;;;;;;;;;;;;;;18.50;40.86;101664.55;102745;1297;61324;-83
2023/05/13 11:46:00;;;;;;;;;;;;;;;18.51;40.97;101669.86;102844;1298;61413;-82
2023/05/13 11:48:31;;;;;;;;;;;;;;;18.51;40.98;101664.86;102722;1297;71570;-81
2023/05/13 11:50:57;;;;;;;;;;;;;;;18.52;40.87;101666.61;103069;1298;75545;-81
2023/05/13 11:53:23;;;;;;;;;;;;;;;18.53;40.67;101667.46;103304;1291;61441;-82
2023/05/13 11:56:00;;;;;;;;;;;;;;;18.53;40.86;101667.99;103015;1291;62558;-83
2023/05/13 11:58:26;;;;;;;;;;;;;;;18.53;40.97;101672.08;103102;1292;72330;-82
2023/05/13 12:01:06;;;;;;;;;;;;;;;18.53;40.78;101675.10;103098;1295;74307;-82
2023/05/13 12:03:59;;;;;;;;;;;;;;;18.53;40.78;101677.77;102780;1295;61273;-82
2023/05/13 12:06:27;;;;;;;;;;;;;;;18.54;40.76;101678.80;103036;1294;61637;-82
2023/05/13 12:08:53;;;;;;;;;;;;;;;18.54;40.71;101683.09;103059;1289;72435;-81
2023/05/13 12:11:41;;;;;;;;;;;;;;;;;;;;;
2023/05/13 12:14:07;;;;;;;;;;;;;;;18.55;40.85;101689.29;103120;1292;61318;-81
2023/05/13 12:16:42;;;;;;;;;;;;;;;18.54;40.82;101687.88;103109;1290;61554;-82
2023/05/13 12:19:08;;;;;;;;;;;;;;;18.54;40.61;101693.22;103163;1291;73431;-82
2023/05/13 12:21:46;;;;;;;;;;;;;;;18.54;40.87;101690.54;103108;1291;74533;-83
2023/05/13 12:24:19;;;;;;;;;;;;;;;18.55;40.61;101690.68;103133;1289;61385;-82
2023/05/13 12:27:02;;;;;;;;;;;;;;;18.55;40.69;101684.09;103099;1291;61536;-81
2023/05/13 12:29:37;;;;;;;;;;;;;;;18.55;40.73;101679.83;103164;1294;72256;-82
2023/05/13 12:32:12;;;;;;;;;;;;;;;18.55;40.73;101679.45;103165;1290;75584;-83
2023/05/13 12:34:47;;;;;;;;;;;;;;;18.55;40.71;101675.00;103079;1292;61888;-82
2023/05/13 12:37:13;;;;;;;;;;;;;;;18.55;40.65;101674.10;103091;1290;61314;-83
2023/05/13 12:39:48;;;;;;;;;;;;;;;18.56;40.63;101668.20;102965;1297;72477;-81
2023/05/13 12:42:25;;;;;;;;;;;;;;;18.56;40.51;101668.20;103428;1285;74676;-82
2023/05/13 12:44:55;;;;;;;;;;;;;;;18.56;40.52;101671.23;103775;1285;61385;-83
2023/05/13 12:47:46;;;;;;;;;;;;;;;18.56;40.63;101675.48;103936;1288;61290;-82
2023/05/13 12:50:14;;;;;;;;;;;;;;;18.57;40.48;101671.16;104051;1285;73374;-81
2023/05/13 12:52:49;;;;;;;;;;;;;;;18.57;40.50;101666.52;103872;1285;61267;-82
2023/05/13 12:55:23;;;;;;;;;;;;;;;18.58;40.41;101664.52;103757;1288;61296;-82
2023/05/13 12:58:11;;;;;;;;;;;;;;;18.59;40.37;101662.52;103654;1285;61371;-82
2023/05/13 13:00:42;;;;;;;;;;;;;;;18.59;40.48;101658.07;103645;1285;73274;-82
2023/05/13 13:03:10;;;;;;;;;;;;;;;18.59;40.49;101658.05;103654;1288;74647;-83
2023/05/13 13:05:50;;;;;;;;;;;;;;;18.60;40.38;101654.11;103624;1285;61691;-82
2023/05/13 13:08:18;;;;;;;;;;;;;;;18.60;40.46;101653.55;103682;1285;61292;-83
2023/05/13 13:10:50;;;;;;;;;;;;;;;18.61;40.50;101652.99;103680;1284;73042;-82